aviador You're here:

MHCA Decoded Metar

CATACAMAS in HONDURAS
Report Time2018-07-22 14:00:00
UTC Time2018-07-22 14:11:33
Flight Rules vfr VFR
WindCalm
Visibility9999 m
Phenomena:N/A
Clouds:Few 028 Hf
Expected CloudBase > 1,200 ft AGL from Temp-Dew spread
CeilingNone
Temp26°C (ISA +14)
Dew Point23°C (84% RH)
QNH1016 hPa
Density Alt3,327 ft
Elevation1,450 ft
Report Wrong Elevation
Raw Report
METAR MHCA 221400Z 00000KT 9999 FEW028 26/23 Q1016=

Extra information for MHCA:More info

Metar Taf Metar & Taf Last 4 Metars F.Rules Stats Wind Profile Meteogram Temp Stats Airport Information Weather charts Add Link Nearby VenuesMetar ALERT Operation Metar Decoded Social comments